Time;durP1;ratioP1;P1;durP2;ratioP2;P2;SDS_P1;SDS_P2;PMS_P1;PMS_P2;Temp;Humidity;BMP_temperature;BMP_pressure;BME280_temperature;BME280_humidity;BME280_pressure;Samples;Min_cycle;Max_cycle;Signal;HPM_P1;HPM_P2
2021/12/07 00:00:37;;;;;;;27.75;15.60;;;2.10;99.90;;;;;;5047952;28;20125;-43
2021/12/07 00:03:03;;;;;;;30.52;16.17;;;2.10;99.90;;;;;;5048094;28;20106;-44
2021/12/07 00:05:29;;;;;;;27.95;15.30;;;2.10;99.90;;;;;;5051358;28;20536;-44
2021/12/07 00:07:55;;;;;;;29.00;14.98;;;2.10;99.90;;;;;;5048089;28;20052;-43
2021/12/07 00:10:21;;;;;;;27.35;15.65;;;2.10;99.90;;;;;;5049357;28;20041;-43
2021/12/07 00:12:48;;;;;;;29.05;16.23;;;2.00;99.90;;;;;;5078249;28;20445;-44
2021/12/07 00:15:17;;;;;;;26.65;15.05;;;2.00;99.90;;;;;;5077866;28;20119;-43
2021/12/07 00:17:44;;;;;;;31.08;15.27;;;2.00;99.90;;;;;;5047656;28;20147;-42
2021/12/07 00:20:14;;;;;;;28.23;15.83;;;2.00;99.90;;;;;;5066833;28;20060;-42
2021/12/07 00:22:44;;;;;;;28.75;14.85;;;2.00;99.90;;;;;;5049286;28;20041;-43
2021/12/07 00:25:10;;;;;;;28.08;14.70;;;2.00;99.90;;;;;;5049426;28;20053;-42
2021/12/07 00:27:36;;;;;;;30.90;15.20;;;1.90;99.90;;;;;;5047758;28;20041;-43
2021/12/07 00:30:05;;;;;;;25.98;15.05;;;1.90;99.90;;;;;;5048567;28;20041;-43
2021/12/07 00:32:34;;;;;;;27.23;14.70;;;1.90;99.90;;;;;;5049055;28;20052;-43
2021/12/07 00:37:33;;;;;;;28.00;16.50;;;1.80;99.90;;;;;;5047764;28;20056;-43
2021/12/07 00:40:03;;;;;;;28.77;15.70;;;1.80;99.90;;;;;;5080991;28;20119;-43
2021/12/07 00:42:29;;;;;;;27.73;15.20;;;1.80;99.90;;;;;;5047737;28;20466;-43
2021/12/07 00:44:55;;;;;;;29.55;15.27;;;1.80;99.90;;;;;;5030573;28;20049;-44
2021/12/07 00:47:21;;;;;;;29.60;15.35;;;1.80;99.90;;;;;;5047665;28;20041;-42
2021/12/07 00:49:46;;;;;;;26.33;14.68;;;1.80;99.90;;;;;;5032777;28;20049;-42
2021/12/07 00:52:12;;;;;;;26.50;14.45;;;1.70;99.90;;;;;;5052519;28;20784;-44
2021/12/07 00:54:39;;;;;;;28.60;15.30;;;1.70;99.90;;;;;;5066076;28;20049;-43
2021/12/07 00:57:06;;;;;;;26.45;14.55;;;1.70;99.90;;;;;;5052981;28;20040;-42
2021/12/07 00:59:32;;;;;;;26.15;14.65;;;1.70;99.90;;;;;;5052190;28;20382;-43
2021/12/07 01:01:58;;;;;;;29.75;14.85;;;1.70;99.90;;;;;;5084523;28;20044;-43
2021/12/07 01:04:26;;;;;;;30.45;15.32;;;1.60;99.90;;;;;;5051198;28;20072;-43
2021/12/07 01:25:39;;;;;;;24.75;13.18;;;1.30;99.90;;;;;;5051915;28;20521;-43
2021/12/07 01:28:23;;;;;;;24.13;13.65;;;1.30;99.90;;;;;;5050796;28;20482;-42
2021/12/07 01:31:11;;;;;;;27.77;14.18;;;1.20;99.90;;;;;;5050363;28;20041;-43
2021/12/07 01:46:59;;;;;;;27.75;14.63;;;1.00;99.90;;;;;;5051186;28;20049;-41
2021/12/07 02:00:18;;;;;;;27.85;14.15;;;0.80;99.90;;;;;;5069352;28;20126;-41
2021/12/07 02:02:44;;;;;;;26.70;14.25;;;0.80;99.90;;;;;;5052960;28;20114;-41
2021/12/07 02:05:53;;;;;;;29.75;14.50;;;0.80;99.90;;;;;;5071226;28;20447;-42
2021/12/07 02:08:21;;;;;;;21.93;12.33;;;0.80;99.90;;;;;;5061109;28;20040;-42
2021/12/07 02:10:47;;;;;;;;;;;0.80;99.90;;;;;;5071250;28;20360;-42
2021/12/07 02:15:57;;;;;;;29.15;14.77;;;0.80;99.90;;;;;;5063533;28;20041;-42
2021/12/07 02:18:24;;;;;;;27.45;14.88;;;0.80;99.90;;;;;;5091209;28;20103;-41
2021/12/07 02:20:50;;;;;;;27.00;14.00;;;0.80;99.90;;;;;;5050467;28;20091;-41
2021/12/07 02:23:16;;;;;;;27.60;13.38;;;0.70;99.90;;;;;;5050255;28;20041;-41
2021/12/07 02:25:43;;;;;;;24.27;13.43;;;0.80;99.90;;;;;;5050360;28;20342;-41
2021/12/07 02:28:14;;;;;;;24.95;13.15;;;0.70;99.90;;;;;;5050276;28;20067;-41
2021/12/07 02:30:41;;;;;;;24.98;13.57;;;0.80;99.90;;;;;;5037493;28;20089;-41
2021/12/07 02:33:09;;;;;;;24.13;13.30;;;0.80;99.90;;;;;;5050273;28;20108;-42
2021/12/07 02:35:36;;;;;;;24.83;13.25;;;0.80;99.90;;;;;;5032238;28;20572;-41
2021/12/07 02:38:04;;;;;;;25.10;13.45;;;0.80;99.90;;;;;;5048372;28;20483;-42
2021/12/07 02:40:30;;;;;;;26.30;13.48;;;0.80;99.90;;;;;;5060517;28;20049;-42
2021/12/07 02:42:56;;;;;;;24.48;13.73;;;1.10;99.90;;;;;;5031447;28;20045;-41
2021/12/07 02:45:23;;;;;;;23.05;13.40;;;0.80;99.90;;;;;;5065028;28;20048;-42
2021/12/07 02:47:50;;;;;;;25.08;13.77;;;0.80;99.90;;;;;;5050336;28;20045;-42
2021/12/07 02:50:18;;;;;;;22.15;13.32;;;0.80;99.90;;;;;;5048916;28;20028;-41
2021/12/07 02:52:45;;;;;;;22.95;12.82;;;0.90;99.90;;;;;;5048382;28;20503;-42
2021/12/07 02:55:11;;;;;;;27.20;13.85;;;0.80;99.90;;;;;;5048565;28;20099;-42
2021/12/07 02:57:38;;;;;;;24.10;14.10;;;0.80;99.90;;;;;;5081107;28;20045;-43
2021/12/07 03:00:12;;;;;;;24.45;13.68;;;0.90;99.90;;;;;;5047545;28;20037;-42
2021/12/07 03:02:45;;;;;;;28.33;15.15;;;0.90;99.90;;;;;;5049513;28;20140;-41
2021/12/07 03:27:32;;;;;;;28.40;14.77;;;1.00;99.90;;;;;;5049596;28;20045;-44
2021/12/07 03:29:58;;;;;;;26.60;14.70;;;1.00;99.90;;;;;;5031568;28;20124;-43
2021/12/07 03:32:24;;;;;;;25.73;14.95;;;1.00;99.90;;;;;;5048264;28;20040;-42
2021/12/07 03:34:49;;;;;;;28.40;15.30;;;1.10;99.90;;;;;;5049588;28;20048;-42
2021/12/07 03:37:15;;;;;;;26.38;14.60;;;1.00;99.90;;;;;;5048419;28;20037;-42
2021/12/07 03:39:41;;;;;;;28.63;15.10;;;1.10;99.90;;;;;;5031410;28;20037;-42
2021/12/07 03:42:07;;;;;;;26.58;14.88;;;1.10;99.90;;;;;;5048004;28;20521;-43
2021/12/07 03:44:33;;;;;;;29.73;14.80;;;1.10;99.90;;;;;;5049392;28;20613;-43
2021/12/07 03:46:59;;;;;;;26.77;14.38;;;1.10;99.90;;;;;;5049364;28;20079;-41
2021/12/07 03:49:25;;;;;;;27.42;14.85;;;1.10;99.90;;;;;;5049686;28;20037;-42
2021/12/07 03:51:51;;;;;;;28.80;14.98;;;1.10;99.90;;;;;;5047436;28;20080;-42
2021/12/07 03:54:16;;;;;;;27.98;15.15;;;1.10;99.90;;;;;;5049057;28;20053;-43
2021/12/07 03:56:42;;;;;;;23.77;14.23;;;1.10;99.90;;;;;;5055957;28;20642;-42
2021/12/07 03:59:08;;;;;;;26.42;14.55;;;1.10;99.90;;;;;;5067571;28;20044;-42
2021/12/07 04:01:34;;;;;;;26.30;14.13;;;1.10;99.90;;;;;;5047630;28;20045;-42
2021/12/07 04:04:02;;;;;;;25.40;13.65;;;1.10;99.90;;;;;;5047789;28;20048;-42
2021/12/07 04:06:29;;;;;;;26.80;13.90;;;1.10;99.90;;;;;;5051982;28;20702;-42
2021/12/07 04:08:55;;;;;;;26.67;14.67;;;1.10;99.90;;;;;;5049044;28;20440;-42
2021/12/07 04:11:21;;;;;;;26.90;14.00;;;1.10;99.90;;;;;;5049024;28;20095;-42
2021/12/07 04:13:47;;;;;;;25.00;14.07;;;1.10;99.90;;;;;;5047336;28;20033;-42
2021/12/07 04:16:15;;;;;;;23.65;14.05;;;1.10;99.90;;;;;;5047469;28;20041;-43
2021/12/07 04:18:41;;;;;;;26.63;14.45;;;1.10;99.90;;;;;;5055620;28;20090;-41
2021/12/07 04:21:07;;;;;;;23.27;13.38;;;1.10;99.90;;;;;;5059451;28;20045;-42
2021/12/07 04:23:37;;;;;;;26.27;14.02;;;1.10;99.90;;;;;;5050705;28;20048;-42
2021/12/07 04:26:08;;;;;;;23.70;12.88;;;1.10;99.90;;;;;;5051736;28;20072;-42
2021/12/07 04:28:34;;;;;;;25.23;13.70;;;1.10;99.90;;;;;;5051133;28;20041;-42
2021/12/07 04:31:00;;;;;;;25.05;12.82;;;1.00;99.90;;;;;;5084597;28;20482;-43
2021/12/07 04:33:29;;;;;;;24.75;12.52;;;1.00;99.90;;;;;;5051172;28;20036;-42
2021/12/07 04:35:56;;;;;;;23.55;12.48;;;0.90;99.90;;;;;;5051446;28;20041;-42
2021/12/07 04:38:22;;;;;;;24.48;12.45;;;0.90;99.90;;;;;;5054082;28;20041;-42
2021/12/07 04:40:48;;;;;;;22.67;13.00;;;0.90;99.90;;;;;;5072306;28;20052;-42
2021/12/07 04:43:15;;;;;;;23.83;12.35;;;0.80;99.90;;;;;;5054501;28;20131;-42
2021/12/07 04:48:36;;;;;;;22.75;11.88;;;0.80;99.90;;;;;;5037355;28;20138;-42
2021/12/07 04:59:15;;;;;;;23.98;12.18;;;0.60;99.90;;;;;;5052370;28;20045;-42
2021/12/07 05:01:41;;;;;;;21.45;11.80;;;0.60;99.90;;;;;;5050953;28;20049;-42
2021/12/07 05:04:18;;;;;;;21.27;12.23;;;0.60;99.90;;;;;;5052102;28;20056;-42
2021/12/07 05:06:49;;;;;;;23.50;11.93;;;0.50;99.90;;;;;;5062930;28;20067;-42
2021/12/07 05:09:32;;;;;;;25.77;12.68;;;0.60;99.90;;;;;;5054511;28;20063;-42
2021/12/07 05:14:36;;;;;;;24.27;11.18;;;0.50;99.90;;;;;;5052519;28;20052;-42
2021/12/07 05:38:38;;;;;;;26.65;12.40;;;0.50;99.90;;;;;;5051525;28;20076;-40
2021/12/07 05:41:08;;;;;;;25.55;11.82;;;0.60;99.90;;;;;;5050422;28;20049;-40
2021/12/07 05:43:35;;;;;;;23.40;11.32;;;0.60;99.90;;;;;;5075409;28;20043;-40
2021/12/07 05:46:02;;;;;;;28.90;11.93;;;0.70;99.90;;;;;;5049054;28;20103;-40
2021/12/07 05:48:28;;;;;;;24.42;11.88;;;0.70;99.90;;;;;;5049440;28;20102;-40
2021/12/07 05:50:54;;;;;;;23.70;11.00;;;0.70;99.90;;;;;;5080227;28;20072;-40
2021/12/07 05:53:20;;;;;;;21.20;10.18;;;0.60;99.90;;;;;;5062156;28;20155;-40
2021/12/07 05:55:46;;;;;;;18.10;10.07;;;0.60;99.90;;;;;;5033141;28;20051;-40
2021/12/07 05:58:14;;;;;;;19.70;10.38;;;0.60;99.90;;;;;;5051128;28;20037;-40
2021/12/07 06:00:43;;;;;;;21.00;9.77;;;0.60;99.90;;;;;;5082877;28;20056;-41
2021/12/07 06:03:10;;;;;;;20.52;9.85;;;0.60;99.90;;;;;;5066174;28;20124;-40
2021/12/07 06:05:39;;;;;;;20.73;9.90;;;0.60;99.90;;;;;;5062600;28;20123;-40
2021/12/07 06:08:06;;;;;;;21.05;9.57;;;0.50;99.90;;;;;;5049377;28;20112;-40
2021/12/07 06:10:32;;;;;;;21.92;10.07;;;0.50;99.90;;;;;;5046169;28;20486;-40
2021/12/07 06:12:58;;;;;;;27.52;11.15;;;0.60;99.90;;;;;;5051157;28;20384;-40
2021/12/07 06:15:27;;;;;;;23.50;9.88;;;0.60;99.90;;;;;;5051044;28;20118;-40
2021/12/07 06:17:54;;;;;;;19.10;9.88;;;0.60;99.90;;;;;;5051957;28;20064;-40
2021/12/07 06:20:21;;;;;;;18.88;9.40;;;0.60;99.90;;;;;;5068296;28;20036;-40
2021/12/07 06:22:47;;;;;;;20.58;9.10;;;0.60;99.90;;;;;;5049503;28;20044;-40
2021/12/07 06:25:13;;;;;;;18.85;8.65;;;0.70;99.90;;;;;;5050612;28;20040;-40
2021/12/07 06:27:40;;;;;;;23.02;8.55;;;0.70;99.90;;;;;;5060235;28;20403;-40
2021/12/07 06:30:09;;;;;;;18.35;8.20;;;0.70;99.90;;;;;;5052938;28;20045;-40
2021/12/07 06:32:35;;;;;;;17.02;7.93;;;0.70;99.90;;;;;;5050555;28;20045;-40
2021/12/07 06:35:01;;;;;;;13.90;6.78;;;0.70;99.90;;;;;;5060126;28;20040;-41
2021/12/07 06:37:27;;;;;;;13.95;6.93;;;0.80;99.90;;;;;;5068179;28;20040;-41
2021/12/07 06:39:53;;;;;;;14.65;7.05;;;0.80;99.90;;;;;;5066866;28;20071;-41
2021/12/07 06:42:19;;;;;;;16.48;6.78;;;0.80;99.90;;;;;;5068142;28;20099;-41
2021/12/07 06:44:45;;;;;;;19.15;7.53;;;0.80;99.90;;;;;;5067719;28;20036;-40
2021/12/07 06:47:11;;;;;;;15.95;7.90;;;0.80;99.90;;;;;;5065303;28;20040;-40
2021/12/07 06:49:37;;;;;;;18.10;7.75;;;0.80;99.90;;;;;;5067516;28;20033;-41
2021/12/07 06:52:04;;;;;;;15.53;6.77;;;0.80;99.90;;;;;;5068131;28;20063;-40
2021/12/07 06:54:30;;;;;;;24.67;7.85;;;0.80;99.90;;;;;;5066468;28;20538;-41
2021/12/07 06:56:56;;;;;;;19.10;7.50;;;0.80;99.90;;;;;;5066052;28;20071;-41
2021/12/07 06:59:22;;;;;;;18.48;8.05;;;0.80;99.90;;;;;;5064334;28;20067;-41
2021/12/07 07:01:49;;;;;;;20.80;8.23;;;0.80;99.90;;;;;;5069287;28;20131;-41
2021/12/07 07:04:15;;;;;;;19.02;7.57;;;0.80;99.90;;;;;;5065877;28;20041;-40
2021/12/07 07:06:44;;;;;;;17.40;7.90;;;0.80;99.90;;;;;;5061083;28;20087;-42
2021/12/07 07:09:12;;;;;;;21.30;7.95;;;0.80;99.90;;;;;;5054724;28;20041;-40
2021/12/07 07:11:38;;;;;;;20.10;8.55;;;0.80;99.90;;;;;;5066837;28;20076;-41
2021/12/07 07:14:04;;;;;;;16.38;7.03;;;0.80;99.90;;;;;;5064640;28;20045;-41
2021/12/07 07:16:31;;;;;;;17.63;7.07;;;0.70;99.90;;;;;;5049158;28;20036;-41
2021/12/07 07:18:57;;;;;;;14.68;7.05;;;0.70;99.90;;;;;;5047723;28;20618;-41
2021/12/07 07:21:23;;;;;;;24.48;8.63;;;0.70;99.90;;;;;;5048249;28;20041;-40
2021/12/07 07:23:51;;;;;;;19.73;8.02;;;0.70;99.90;;;;;;5049199;28;20507;-41
2021/12/07 07:26:17;;;;;;;21.52;8.45;;;0.80;99.90;;;;;;5049727;28;20040;-40
2021/12/07 07:28:43;;;;;;;19.85;8.65;;;0.80;99.90;;;;;;5049049;28;20105;-40
2021/12/07 07:31:11;;;;;;;20.98;8.57;;;0.90;99.90;;;;;;5081490;28;20049;-40
2021/12/07 07:33:37;;;;;;;28.45;8.95;;;1.00;99.90;;;;;;5061010;28;20041;-41
2021/12/07 07:36:04;;;;;;;26.05;9.30;;;1.00;99.90;;;;;;5048051;28;20204;-41
2021/12/07 07:38:31;;;;;;;20.70;8.25;;;1.10;99.90;;;;;;5049174;28;20041;-41
2021/12/07 07:40:57;;;;;;;22.20;7.75;;;1.10;99.90;;;;;;5048048;28;20044;-41
2021/12/07 07:43:23;;;;;;;25.38;8.82;;;1.20;99.90;;;;;;5048467;28;20449;-40
2021/12/07 07:45:51;;;;;;;19.95;7.97;;;1.20;99.90;;;;;;5047826;28;20564;-41
2021/12/07 07:48:18;;;;;;;18.35;7.55;;;1.30;99.90;;;;;;5064579;28;20490;-40
2021/12/07 07:50:45;;;;;;;18.33;7.78;;;1.30;99.90;;;;;;5049248;28;20187;-40
2021/12/07 07:53:11;;;;;;;20.15;8.60;;;1.20;99.90;;;;;;5048835;28;20142;-41
2021/12/07 07:55:40;;;;;;;21.65;8.23;;;1.30;99.90;;;;;;5064592;28;20068;-41
2021/12/07 07:58:06;;;;;;;16.63;7.90;;;1.30;99.90;;;;;;5048707;28;20110;-40
2021/12/07 08:00:33;;;;;;;21.08;8.20;;;1.30;99.90;;;;;;5056122;28;20194;-41
2021/12/07 08:02:59;;;;;;;19.95;8.05;;;1.30;99.90;;;;;;5043183;28;20044;-41
2021/12/07 08:05:25;;;;;;;19.80;7.68;;;1.30;99.90;;;;;;5066424;28;20043;-41
2021/12/07 08:07:51;;;;;;;16.52;7.50;;;1.20;99.90;;;;;;5066154;28;20348;-41
2021/12/07 08:10:21;;;;;;;23.30;8.75;;;1.20;99.90;;;;;;5060092;28;20044;-40
2021/12/07 08:12:48;;;;;;;23.45;10.02;;;1.20;99.90;;;;;;5066086;28;20040;-41
2021/12/07 08:15:14;;;;;;;20.17;8.98;;;1.20;99.90;;;;;;5065137;28;20115;-41
2021/12/07 08:17:40;;;;;;;20.27;9.43;;;1.20;99.90;;;;;;5068495;28;20155;-41
2021/12/07 08:20:07;;;;;;;19.45;8.40;;;1.20;99.90;;;;;;5065860;28;20147;-41
2021/12/07 08:22:34;;;;;;;17.73;7.32;;;1.20;99.90;;;;;;5064443;28;20435;-41
2021/12/07 08:25:00;;;;;;;15.52;7.40;;;1.20;99.90;;;;;;5061903;28;20048;-41
2021/12/07 08:27:26;;;;;;;18.67;7.45;;;1.20;99.90;;;;;;5067872;28;20105;-41
2021/12/07 08:29:53;;;;;;;19.90;7.50;;;1.30;99.90;;;;;;5063967;28;20053;-41
2021/12/07 08:32:19;;;;;;;18.33;7.78;;;1.30;99.90;;;;;;5049820;28;20090;-41
2021/12/07 08:34:45;;;;;;;16.83;7.25;;;1.30;99.90;;;;;;5049239;28;20076;-41
2021/12/07 08:37:11;;;;;;;17.45;7.47;;;1.30;99.90;;;;;;5067192;28;20335;-41
2021/12/07 08:39:37;;;;;;;15.73;7.35;;;1.20;99.90;;;;;;5058898;28;20386;-41
2021/12/07 08:42:06;;;;;;;16.83;7.43;;;1.30;99.90;;;;;;5052177;28;20510;-41
2021/12/07 08:44:32;;;;;;;22.52;8.20;;;1.30;99.90;;;;;;5060822;28;20044;-40
2021/12/07 08:46:58;;;;;;;20.30;6.80;;;1.30;99.90;;;;;;5066236;28;20036;-41
2021/12/07 08:49:24;;;;;;;16.85;7.63;;;1.40;99.90;;;;;;5062271;28;20589;-40
2021/12/07 08:51:52;;;;;;;17.92;7.72;;;1.40;99.90;;;;;;5058224;28;20055;-41
2021/12/07 08:54:27;;;;;;;20.15;7.57;;;1.40;99.90;;;;;;5054954;28;20589;-41
2021/12/07 08:59:45;;;;;;;17.38;6.70;;;1.50;99.90;;;;;;5053311;28;20044;-41
2021/12/07 09:02:24;;;;;;;16.17;6.57;;;1.50;99.90;;;;;;5033384;28;20178;-40
2021/12/07 09:04:50;;;;;;;;;;;1.60;99.90;;;;;;5041728;28;20193;-41
2021/12/07 09:07:16;;;;;;;19.63;7.22;;;1.60;99.90;;;;;;5063236;28;19942;-41
2021/12/07 09:09:43;;;;;;;17.60;6.70;;;1.70;99.90;;;;;;5054877;28;20063;-40
2021/12/07 09:12:14;;;;;;;25.48;8.07;;;1.80;99.90;;;;;;5083070;28;20490;-41
2021/12/07 09:14:44;;;;;;;15.80;7.28;;;1.80;99.90;;;;;;5060491;28;20052;-41
2021/12/07 09:17:11;;;;;;;15.27;7.18;;;1.90;99.90;;;;;;5056695;28;20187;-41
2021/12/07 09:19:38;;;;;;;19.00;7.43;;;1.90;99.90;;;;;;5051494;28;20537;-41
2021/12/07 09:22:05;;;;;;;18.70;7.07;;;2.00;99.90;;;;;;5056024;28;20404;-41
2021/12/07 09:24:32;;;;;;;17.05;7.15;;;2.10;99.90;;;;;;5049132;28;20048;-41
2021/12/07 09:26:58;;;;;;;22.23;7.70;;;2.10;99.90;;;;;;5050865;28;20076;-41
2021/12/07 09:29:24;;;;;;;19.83;6.90;;;2.20;99.90;;;;;;5058983;28;20116;-43
2021/12/07 09:31:51;;;;;;;16.92;7.10;;;2.20;99.90;;;;;;5050000;28;20178;-41
2021/12/07 09:34:17;;;;;;;15.88;6.45;;;2.30;99.90;;;;;;5068200;28;20045;-41
2021/12/07 09:36:44;;;;;;;16.70;6.25;;;2.40;99.90;;;;;;5052883;28;20114;-41
2021/12/07 09:39:12;;;;;;;17.23;6.63;;;2.50;99.90;;;;;;5051399;28;20187;-41
2021/12/07 09:41:39;;;;;;;19.60;7.53;;;3.10;99.90;;;;;;5051505;28;20593;-41
2021/12/07 09:44:06;;;;;;;21.35;6.32;;;2.60;99.90;;;;;;5063232;28;20043;-40
2021/12/07 09:46:32;;;;;;;14.70;6.57;;;2.60;99.90;;;;;;5053387;28;20055;-41
2021/12/07 09:48:58;;;;;;;16.88;6.15;;;2.70;99.90;;;;;;5050633;28;20469;-41
2021/12/07 09:51:26;;;;;;;19.80;6.72;;;2.70;99.90;;;;;;5032834;28;20115;-40
2021/12/07 09:53:53;;;;;;;19.33;6.30;;;2.70;99.90;;;;;;5064566;28;20048;-40
2021/12/07 09:56:20;;;;;;;12.43;6.30;;;2.80;99.90;;;;;;5065871;28;20388;-41
2021/12/07 09:58:49;;;;;;;19.88;6.47;;;2.90;99.90;;;;;;5037759;28;20051;-43
2021/12/07 10:01:15;;;;;;;16.15;7.03;;;3.00;99.90;;;;;;5065092;28;20400;-42
2021/12/07 10:03:41;;;;;;;16.77;6.47;;;3.00;99.90;;;;;;5048903;28;20387;-41
2021/12/07 10:06:08;;;;;;;22.58;6.93;;;3.10;99.90;;;;;;5054768;28;20107;-41
2021/12/07 10:08:35;;;;;;;19.70;7.30;;;3.20;99.90;;;;;;5046656;28;20063;-42
2021/12/07 10:11:03;;;;;;;15.57;6.95;;;3.40;99.90;;;;;;5050245;28;20131;-42
2021/12/07 10:13:31;;;;;;;24.02;7.03;;;3.60;99.90;;;;;;5063227;28;20508;-42
2021/12/07 10:16:00;;;;;;;20.02;6.63;;;3.70;99.90;;;;;;5050670;28;20059;-43
2021/12/07 10:18:31;;;;;;;19.90;7.00;;;3.90;99.90;;;;;;5055051;28;20041;-44
2021/12/07 10:21:05;;;;;;;21.70;6.28;;;4.10;99.90;;;;;;5050178;28;20680;-41
2021/12/07 10:23:33;;;;;;;16.55;5.88;;;4.30;99.90;;;;;;5089370;28;20040;-42
2021/12/07 10:26:11;;;;;;;16.33;6.68;;;4.40;99.90;;;;;;5058701;28;20059;-42
2021/12/07 10:28:41;;;;;;;16.08;6.07;;;4.50;99.90;;;;;;5067556;28;20097;-42
2021/12/07 10:31:07;;;;;;;16.40;5.70;;;4.60;99.90;;;;;;5061842;28;20051;-42
2021/12/07 10:33:35;;;;;;;13.70;6.00;;;4.60;99.90;;;;;;5050483;28;20037;-44
2021/12/07 10:36:13;;;;;;;16.02;4.93;;;4.60;99.90;;;;;;5047411;28;20044;-44
2021/12/07 10:38:40;;;;;;;12.40;5.43;;;4.60;99.90;;;;;;5093500;28;20047;-42
2021/12/07 10:41:09;;;;;;;13.30;5.30;;;4.60;99.90;;;;;;5051870;28;20406;-43
2021/12/07 10:43:48;;;;;;;13.35;5.43;;;4.50;99.90;;;;;;5056707;28;20040;-43
2021/12/07 10:46:31;;;;;;;16.13;5.50;;;4.60;99.90;;;;;;5062770;28;20079;-44
2021/12/07 10:49:11;;;;;;;16.92;5.53;;;4.60;99.90;;;;;;5058602;28;20135;-46
2021/12/07 10:51:38;;;;;;;12.57;4.65;;;4.60;99.90;;;;;;5043748;28;20040;-41
2021/12/07 10:54:06;;;;;;;11.65;5.18;;;4.60;99.90;;;;;;5065848;28;20407;-43
2021/12/07 10:56:37;;;;;;;14.93;5.57;;;4.60;99.90;;;;;;5083719;28;20133;-43
2021/12/07 10:59:05;;;;;;;14.40;4.82;;;4.60;99.90;;;;;;5052526;28;20387;-44
2021/12/07 11:01:46;;;;;;;11.18;4.70;;;4.70;99.90;;;;;;5050270;28;20553;-46
2021/12/07 11:04:21;;;;;;;16.00;4.90;;;4.80;99.90;;;;;;5050598;28;20051;-43
2021/12/07 11:07:11;;;;;;;16.70;4.80;;;4.90;99.90;;;;;;5069085;28;20380;-43
2021/12/07 11:10:15;;;;;;;13.13;4.55;;;5.00;99.90;;;;;;5056423;28;20124;-44
2021/12/07 11:13:00;;;;;;;12.02;4.72;;;5.20;99.90;;;;;;5065869;28;20416;-42
2021/12/07 11:15:28;;;;;;;13.60;4.90;;;5.20;99.90;;;;;;5061871;28;20044;-44
2021/12/07 11:18:12;;;;;;;13.63;4.57;;;5.20;99.90;;;;;;5065084;28;20040;-44
2021/12/07 11:20:39;;;;;;;16.58;5.10;;;5.30;99.90;;;;;;5056879;28;20494;-44
2021/12/07 11:23:18;;;;;;;15.40;4.97;;;5.20;99.90;;;;;;5092773;28;20129;-42
2021/12/07 11:31:32;;;;;;;9.55;4.35;;;5.20;99.90;;;;;;5063840;28;20298;-43
2021/12/07 11:34:13;;;;;;;15.52;5.00;;;5.20;99.90;;;;;;5061269;28;20265;-43
2021/12/07 11:36:44;;;;;;;13.88;4.72;;;5.30;99.90;;;;;;5051039;28;20044;-43
2021/12/07 11:39:34;;;;;;;15.82;4.85;;;5.30;99.90;;;;;;5059098;28;20045;-46
2021/12/07 11:42:14;;;;;;;15.35;4.65;;;5.30;99.90;;;;;;5083331;28;20257;-44
2021/12/07 11:44:53;;;;;;;13.70;5.25;;;5.30;99.90;;;;;;5049695;28;20414;-44
2021/12/07 11:47:33;;;;;;;15.07;4.22;;;5.30;99.90;;;;;;5048162;28;20474;-42
2021/12/07 11:50:15;;;;;;;12.50;3.92;;;5.40;99.90;;;;;;5058930;28;20393;-43
2021/12/07 11:52:43;;;;;;;13.52;4.18;;;5.40;99.90;;;;;;5064081;28;20134;-45
2021/12/07 11:55:10;;;;;;;19.73;3.90;;;5.40;99.90;;;;;;5065855;28;20036;-47
2021/12/07 11:57:38;;;;;;;15.15;3.80;;;5.40;99.90;;;;;;5065381;28;20036;-44
2021/12/07 12:00:08;;;;;;;9.55;3.40;;;5.50;99.90;;;;;;5066462;28;20119;-43
2021/12/07 12:02:34;;;;;;;13.35;4.35;;;5.50;99.90;;;;;;5043282;28;20554;-43
2021/12/07 12:05:00;;;;;;;12.98;3.97;;;5.40;99.90;;;;;;5066635;28;20052;-43
2021/12/07 12:07:27;;;;;;;12.43;4.40;;;5.40;99.90;;;;;;5046925;28;20041;-44
2021/12/07 12:09:54;;;;;;;9.63;4.15;;;5.40;99.90;;;;;;5064364;28;20040;-45
2021/12/07 12:12:32;;;;;;;18.63;4.38;;;5.40;99.90;;;;;;5062645;28;20049;-44
2021/12/07 12:15:24;;;;;;;12.63;4.82;;;5.40;99.90;;;;;;5063222;28;20434;-45
2021/12/07 12:17:57;;;;;;;13.82;4.72;;;5.40;99.90;;;;;;5091080;28;20055;-44
2021/12/07 12:20:38;;;;;;;11.70;4.30;;;5.40;99.90;;;;;;5064483;28;20079;-43
2021/12/07 12:23:32;;;;;;;14.52;4.35;;;5.40;99.90;;;;;;5066489;28;20375;-45
2021/12/07 12:26:04;;;;;;;10.13;4.10;;;5.50;99.90;;;;;;5065875;28;20040;-44
2021/12/07 12:28:48;;;;;;;8.35;4.18;;;5.50;99.90;;;;;;5064118;28;20044;-42
2021/12/07 12:31:16;;;;;;;14.95;4.47;;;5.50;99.90;;;;;;5061225;28;20044;-44
2021/12/07 12:33:55;;;;;;;12.13;4.13;;;5.50;99.90;;;;;;5063147;28;20048;-45
2021/12/07 12:36:23;;;;;;;11.13;4.03;;;5.60;99.90;;;;;;5067236;28;20102;-43
2021/12/07 12:39:01;;;;;;;15.93;4.82;;;5.60;99.90;;;;;;5064350;28;20098;-43
2021/12/07 12:41:28;;;;;;;11.32;4.03;;;5.60;99.90;;;;;;5065450;28;20406;-45
2021/12/07 12:44:05;;;;;;;11.93;3.93;;;5.60;99.90;;;;;;5059317;28;20051;-45
2021/12/07 12:46:33;;;;;;;13.70;4.22;;;5.60;99.90;;;;;;5067768;28;20123;-45
2021/12/07 12:49:11;;;;;;;11.80;4.50;;;5.70;99.90;;;;;;5067125;28;20043;-43
2021/12/07 12:51:51;;;;;;;13.50;4.03;;;5.60;99.90;;;;;;5051187;28;20102;-44
2021/12/07 12:54:19;;;;;;;11.38;4.53;;;5.60;99.90;;;;;;5066747;28;20379;-43
2021/12/07 12:56:46;;;;;;;14.10;4.20;;;5.60;99.90;;;;;;5070168;28;20102;-44
2021/12/07 12:59:13;;;;;;;12.88;4.00;;;5.60;99.90;;;;;;5046790;28;20032;-44
2021/12/07 13:01:42;;;;;;;15.07;4.10;;;5.50;99.90;;;;;;5069501;28;20040;-43
2021/12/07 13:04:12;;;;;;;11.50;3.58;;;5.50;99.90;;;;;;5067899;28;20395;-43
2021/12/07 13:06:51;;;;;;;11.18;3.92;;;5.50;99.90;;;;;;5070819;28;20032;-48
2021/12/07 13:09:19;;;;;;;12.23;3.92;;;5.50;99.90;;;;;;5066486;28;20044;-44
2021/12/07 13:11:56;;;;;;;8.13;3.20;;;5.40;99.90;;;;;;5067298;28;20063;-42
2021/12/07 13:14:21;;;;;;;11.85;3.53;;;5.40;99.90;;;;;;5062506;28;20471;-43
2021/12/07 13:16:59;;;;;;;11.55;4.15;;;5.40;99.90;;;;;;5067598;28;20083;-45
2021/12/07 13:19:27;;;;;;;14.48;3.92;;;5.40;99.90;;;;;;5070015;28;20175;-43
2021/12/07 13:21:53;;;;;;;12.90;3.50;;;5.30;99.90;;;;;;5065823;28;20149;-42
2021/12/07 13:24:35;;;;;;;11.93;3.75;;;5.30;99.90;;;;;;5069080;28;20068;-43
2021/12/07 13:27:10;;;;;;;12.90;4.03;;;5.30;99.90;;;;;;5065220;28;20055;-45
2021/12/07 13:29:37;;;;;;;15.32;4.00;;;5.30;99.90;;;;;;5049763;28;20398;-46
2021/12/07 13:32:05;;;;;;;12.68;3.92;;;5.20;99.90;;;;;;5091594;28;20080;-43
2021/12/07 13:34:36;;;;;;;15.60;4.68;;;5.30;99.90;;;;;;5066956;28;20071;-43
2021/12/07 13:37:09;;;;;;;19.20;4.50;;;5.20;99.90;;;;;;5067650;28;20059;-44
2021/12/07 13:39:44;;;;;;;10.90;4.25;;;5.20;99.90;;;;;;5069194;28;20082;-44
2021/12/07 13:42:10;;;;;;;10.82;4.53;;;5.20;99.90;;;;;;5068503;28;20509;-46
2021/12/07 13:44:36;;;;;;;14.93;4.97;;;5.20;99.90;;;;;;5068927;28;20047;-42
2021/12/07 13:47:24;;;;;;;17.75;4.70;;;5.20;99.90;;;;;;5067024;28;20033;-44
2021/12/07 13:50:03;;;;;;;12.70;4.43;;;5.20;99.90;;;;;;5066924;28;20036;-44
2021/12/07 13:52:36;;;;;;;9.52;4.22;;;5.20;99.90;;;;;;5090921;28;20063;-44
2021/12/07 13:55:09;;;;;;;10.32;4.03;;;5.20;99.90;;;;;;5066623;28;20076;-42
2021/12/07 13:57:36;;;;;;;11.70;4.03;;;5.10;99.90;;;;;;5067531;28;20101;-43
2021/12/07 14:00:11;;;;;;;13.68;4.45;;;5.10;99.90;;;;;;5066684;28;20160;-43
2021/12/07 14:02:43;;;;;;;12.23;4.20;;;5.10;99.90;;;;;;5068399;28;20048;-43
2021/12/07 14:05:19;;;;;;;13.88;4.80;;;5.10;99.90;;;;;;5054371;28;20170;-43
2021/12/07 14:07:51;;;;;;;11.35;3.97;;;5.00;99.90;;;;;;5067171;28;20063;-43
2021/12/07 14:10:27;;;;;;;11.38;4.18;;;5.00;99.90;;;;;;5048862;28;20061;-45
2021/12/07 14:12:54;;;;;;;12.80;4.60;;;5.00;99.90;;;;;;5058042;28;20056;-43
2021/12/07 14:15:20;;;;;;;;;;;4.90;99.90;;;;;;5067700;28;20075;-42
2021/12/07 14:17:57;;;;;;;13.20;4.25;;;4.80;99.90;;;;;;5066111;28;20297;-44
2021/12/07 14:20:32;;;;;;;10.68;4.50;;;4.80;99.90;;;;;;5063494;28;20040;-44
2021/12/07 14:23:00;;;;;;;13.77;4.88;;;4.80;99.90;;;;;;5047942;28;20048;-45
2021/12/07 14:25:26;;;;;;;12.55;4.05;;;4.70;99.90;;;;;;5088514;28;20119;-43
2021/12/07 14:27:52;;;;;;;11.65;4.53;;;4.70;99.90;;;;;;5033056;28;20064;-43
2021/12/07 14:30:18;;;;;;;12.57;4.65;;;4.70;99.90;;;;;;5056852;28;20048;-43
2021/12/07 14:32:45;;;;;;;18.42;5.28;;;4.60;99.90;;;;;;5068275;28;20048;-43
2021/12/07 14:35:12;;;;;;;14.43;5.38;;;4.50;99.90;;;;;;5066425;28;20039;-45
2021/12/07 14:37:38;;;;;;;13.75;5.53;;;4.50;99.90;;;;;;5066683;28;20032;-44
2021/12/07 14:40:06;;;;;;;13.95;5.13;;;4.40;99.90;;;;;;5070102;28;20033;-42
2021/12/07 14:42:32;;;;;;;14.55;5.07;;;4.40;99.90;;;;;;5065482;28;20071;-44
2021/12/07 14:44:58;;;;;;;14.00;5.22;;;4.40;99.90;;;;;;5066775;28;20469;-45
2021/12/07 14:47:26;;;;;;;14.48;5.20;;;4.30;99.90;;;;;;5061141;28;20041;-43
2021/12/07 14:49:53;;;;;;;;;;;4.30;99.90;;;;;;5069237;28;20047;-43